Terminal Aerodrome Forecast
Issued by NWS Charleston, WV

Home | Current Version | Previous Version | Text Only | Print | Product List | Glossary On
Versions: 1 2 3 4 5 6 7 8 9 10 11 12 13 14 15 16 17 18 19
292
FTUS41 KRLX 241505 AAA
TAFEKN
TAF AMD
KEKN 241505Z 2415/2512 17012G18KT P6SM -SHRA SCT025 BKN050 OVC070
     FM242000 15012G20KT P6SM -SHRA OVC050
     FM250000 18009KT P6SM OVC120
     FM251000 00000KT P6SM OVC030=

USA.gov is the U.S. government's official web portal to all federal, state and local government web resources and services.